createdAt,value
2023-03-27T00:03:06.234Z,80.68
2023-03-27T00:08:09.463Z,80.81
2023-03-27T00:13:12.069Z,80.69
2023-03-27T00:18:15.720Z,80.85
2023-03-27T00:23:20.098Z,81.29
2023-03-27T00:28:22.372Z,81.29
2023-03-27T00:33:25.995Z,81.27
2023-03-27T00:38:29.607Z,81.07
2023-03-27T00:43:37.231Z,81.67
2023-03-27T00:48:39.767Z,81.50
2023-03-27T00:53:54.140Z,81.42
2023-03-27T00:59:08.388Z,81.36
2023-03-27T01:04:11.012Z,81.62
2023-03-27T01:09:20.341Z,81.47
2023-03-27T01:14:47.936Z,81.44
2023-03-27T01:20:26.104Z,81.85
2023-03-27T01:26:00.728Z,81.78
2023-03-27T01:31:52.108Z,81.45
2023-03-27T01:37:30.252Z,81.80
2023-03-27T01:43:11.766Z,81.98
2023-03-27T01:48:25.717Z,82.09
2023-03-27T01:53:46.707Z,82.04
2023-03-27T01:58:55.624Z,82.18
2023-03-27T02:04:03.071Z,82.55
2023-03-27T02:09:23.246Z,82.02
2023-03-27T02:14:34.809Z,82.20
2023-03-27T02:19:56.234Z,82.17
2023-03-27T02:25:01.455Z,82.35
2023-03-27T02:30:17.354Z,82.54
2023-03-27T02:35:29.518Z,82.59
2023-03-27T02:40:47.597Z,82.41
2023-03-27T02:46:34.185Z,82.30
2023-03-27T02:51:48.046Z,82.52
2023-03-27T02:57:01.648Z,82.45
2023-03-27T03:02:25.778Z,82.55
2023-03-27T03:07:43.608Z,82.62
2023-03-27T03:12:57.005Z,82.54
2023-03-27T03:18:05.653Z,82.91
2023-03-27T03:23:09.174Z,82.47
2023-03-27T03:28:11.535Z,82.34
2023-03-27T03:33:19.645Z,81.98
2023-03-27T03:38:38.904Z,82.01
2023-03-27T03:43:48.035Z,82.15
2023-03-27T03:48:53.012Z,82.02
2023-03-27T03:54:09.346Z,82.41
2023-03-27T03:59:18.837Z,82.06
2023-03-27T04:04:43.768Z,82.48
2023-03-27T04:10:01.732Z,82.46
2023-03-27T04:15:26.424Z,82.50
2023-03-27T04:21:14.717Z,82.74
2023-03-27T04:26:17.892Z,82.70
2023-03-27T04:31:49.504Z,82.87
2023-03-27T04:37:23.408Z,82.81
2023-03-27T04:42:45.656Z,82.88
2023-03-27T04:48:04.203Z,83.03
2023-03-27T04:53:20.572Z,82.83
2023-03-27T04:58:37.303Z,82.94
2023-03-27T05:03:49.385Z,83.10
2023-03-27T05:09:01.533Z,83.10
2023-03-27T05:14:10.120Z,83.14
2023-03-27T05:19:13.328Z,82.98
2023-03-27T05:24:20.409Z,82.90
2023-03-27T05:29:24.008Z,83.04
2023-03-27T05:34:34.750Z,83.44
2023-03-27T05:39:41.398Z,83.21
2023-03-27T05:44:56.660Z,82.99
2023-03-27T05:50:10.139Z,83.07
2023-03-27T05:55:23.665Z,83.17
2023-03-27T06:00:42.108Z,83.15
2023-03-27T06:06:01.094Z,83.00
2023-03-27T06:11:15.278Z,82.96
2023-03-27T06:16:35.922Z,82.93
2023-03-27T06:21:47.270Z,83.03
2023-03-27T06:26:59.452Z,82.14
2023-03-27T06:32:27.685Z,82.19
2023-03-27T06:37:37.062Z,82.38
2023-03-27T06:42:57.411Z,82.37
2023-03-27T06:48:34.867Z,81.78
2023-03-27T06:53:57.082Z,81.71
2023-03-27T06:59:03.116Z,81.40
2023-03-27T07:04:16.763Z,81.42
2023-03-27T07:10:02.352Z,81.52
2023-03-27T07:15:27.883Z,81.33
2023-03-27T07:21:16.737Z,80.99
2023-03-27T07:26:29.674Z,80.95
2023-03-27T07:32:09.279Z,80.69
2023-03-27T07:37:34.241Z,80.60
2023-03-27T07:43:48.452Z,80.57
2023-03-27T07:49:39.460Z,80.66
2023-03-27T07:55:18.298Z,80.87
2023-03-27T08:01:21.985Z,80.63
2023-03-27T08:07:22.041Z,80.40
2023-03-27T08:13:27.184Z,80.76
2023-03-27T08:19:01.132Z,80.95
2023-03-27T08:24:36.497Z,81.27
2023-03-27T08:30:41.444Z,81.02
2023-03-27T08:36:20.302Z,81.11
2023-03-27T08:41:55.022Z,81.93
2023-03-27T08:47:25.832Z,81.94
2023-03-27T08:52:58.236Z,81.98
2023-03-27T08:58:24.315Z,82.26
2023-03-27T09:03:52.255Z,82.50
2023-03-27T09:09:55.542Z,82.16
2023-03-27T09:16:04.445Z,81.97
2023-03-27T09:21:45.040Z,82.18
2023-03-27T09:27:06.349Z,82.23
2023-03-27T09:33:17.502Z,82.01
2023-03-27T09:38:45.469Z,81.83
2023-03-27T09:44:11.418Z,81.38
2023-03-27T09:49:29.936Z,80.84
2023-03-27T09:55:02.937Z,81.11
2023-03-27T10:00:33.516Z,81.40
2023-03-27T10:05:39.294Z,81.62
2023-03-27T10:10:56.073Z,81.90
2023-03-27T10:16:40.043Z,81.49
2023-03-27T10:21:47.814Z,81.64
2023-03-27T10:27:14.064Z,81.76
2023-03-27T10:32:50.230Z,82.01
2023-03-27T10:38:22.464Z,81.90
2023-03-27T10:43:46.354Z,81.81
2023-03-27T10:50:07.834Z,81.56
2023-03-27T10:55:36.888Z,80.90
2023-03-27T11:01:12.040Z,80.80
2023-03-27T11:06:41.877Z,80.40
2023-03-27T11:12:05.071Z,80.06
2023-03-27T11:17:24.007Z,79.82
2023-03-27T11:23:24.664Z,79.02
2023-03-27T11:29:04.140Z,78.89
2023-03-27T11:34:28.780Z,79.01
2023-03-27T11:40:12.744Z,77.96
2023-03-27T11:45:21.389Z,77.76
2023-03-27T11:50:53.202Z,77.48
2023-03-27T11:56:37.424Z,77.36
2023-03-27T12:03:04.122Z,76.71
2023-03-27T12:08:51.520Z,76.07
2023-03-27T12:14:50.661Z,75.61
2023-03-27T12:20:41.639Z,75.21
2023-03-27T12:26:50.516Z,74.49
2023-03-27T12:32:44.215Z,73.68
2023-03-27T12:37:53.796Z,73.35
2023-03-27T12:43:14.793Z,72.89
2023-03-27T12:49:17.775Z,73.04
2023-03-27T12:55:52.306Z,73.05
2023-03-27T13:01:51.724Z,73.83
2023-03-27T13:07:52.752Z,74.22
2023-03-27T13:14:04.903Z,74.51
2023-03-27T13:20:06.458Z,73.56
2023-03-27T13:26:34.275Z,73.33
2023-03-27T13:32:42.583Z,72.25
2023-03-27T13:38:22.344Z,71.38
2023-03-27T13:43:54.115Z,70.29
2023-03-27T13:50:17.222Z,69.40
2023-03-27T13:56:45.694Z,69.37
2023-03-27T14:02:27.230Z,68.56
2023-03-27T14:08:15.637Z,68.54
2023-03-27T14:14:19.907Z,67.83
2023-03-27T14:19:57.629Z,67.58
2023-03-27T14:25:42.272Z,66.81
2023-03-27T14:31:04.683Z,66.21
2023-03-27T14:36:34.533Z,65.00
2023-03-27T14:42:01.532Z,65.06
2023-03-27T14:47:12.116Z,64.87
2023-03-27T14:52:32.736Z,64.22
2023-03-27T14:58:11.039Z,63.85
2023-03-27T15:03:21.674Z,64.17
2023-03-27T15:08:39.369Z,63.50
2023-03-27T15:14:30.254Z,62.54
2023-03-27T15:19:45.738Z,61.88
2023-03-27T15:25:02.560Z,62.04
2023-03-27T15:30:23.681Z,62.52
2023-03-27T15:35:38.424Z,62.70
2023-03-27T15:40:58.541Z,62.64
2023-03-27T15:46:24.714Z,62.57
2023-03-27T15:51:35.252Z,62.36
2023-03-27T15:56:47.363Z,62.36
2023-03-27T16:02:11.612Z,62.13
2023-03-27T16:07:49.797Z,62.86
2023-03-27T16:13:35.390Z,62.81
2023-03-27T16:18:45.004Z,62.41
2023-03-27T16:23:49.910Z,62.90
2023-03-27T16:28:57.780Z,63.34
2023-03-27T16:34:00.212Z,62.76
2023-03-27T16:39:04.216Z,61.98
2023-03-27T16:44:09.599Z,62.46
2023-03-27T16:49:13.193Z,62.49
2023-03-27T16:54:15.919Z,62.17
2023-03-27T16:59:23.106Z,61.85
2023-03-27T17:04:25.873Z,62.28
2023-03-27T17:09:32.352Z,62.43
2023-03-27T17:14:40.589Z,62.84
2023-03-27T17:19:45.912Z,63.38
2023-03-27T17:24:56.641Z,63.79
2023-03-27T17:30:00.379Z,64.11
2023-03-27T17:35:05.307Z,64.15
2023-03-27T17:40:15.883Z,64.35
2023-03-27T17:45:18.502Z,64.79
2023-03-27T17:50:20.684Z,65.05
2023-03-27T17:55:23.777Z,65.25
2023-03-27T18:00:26.146Z,65.46
2023-03-27T18:05:29.143Z,65.64
2023-03-27T18:10:35.320Z,65.69
2023-03-27T18:15:40.871Z,66.31
2023-03-27T18:20:51.071Z,66.27
2023-03-27T18:25:53.620Z,66.35
2023-03-27T18:31:08.247Z,66.04
2023-03-27T18:36:15.430Z,66.25
2023-03-27T18:41:22.237Z,66.26
2023-03-27T18:46:28.272Z,66.16
2023-03-27T18:51:45.627Z,66.10
2023-03-27T18:56:48.851Z,65.55
2023-03-27T19:01:51.437Z,65.98
2023-03-27T19:06:59.516Z,65.84
2023-03-27T19:12:02.579Z,65.97
2023-03-27T19:17:33.178Z,65.85
2023-03-27T19:22:53.519Z,65.73
2023-03-27T19:28:07.279Z,65.69
2023-03-27T19:33:14.622Z,65.84
2023-03-27T19:38:17.297Z,65.48
2023-03-27T19:43:21.604Z,65.43
2023-03-27T19:48:25.232Z,65.43
2023-03-27T19:53:28.617Z,65.23
2023-03-27T19:58:31.490Z,65.20
2023-03-27T20:03:38.607Z,65.17
2023-03-27T20:08:42.359Z,64.89
2023-03-27T20:13:56.888Z,65.12
2023-03-27T20:19:05.315Z,65.21
2023-03-27T20:24:10.508Z,65.35
2023-03-27T20:29:18.769Z,65.61
2023-03-27T20:34:22.509Z,65.15
2023-03-27T20:39:28.622Z,65.68
2023-03-27T20:44:36.554Z,65.45
2023-03-27T20:49:43.133Z,65.47
2023-03-27T20:54:48.135Z,65.54
2023-03-27T20:59:59.086Z,65.84
2023-03-27T21:05:02.699Z,65.72
2023-03-27T21:10:11.200Z,65.97
2023-03-27T21:15:15.905Z,66.10
2023-03-27T21:20:19.075Z,66.07
2023-03-27T21:25:22.348Z,66.47
2023-03-27T21:30:46.198Z,66.43
2023-03-27T21:36:12.884Z,66.40
2023-03-27T21:41:21.799Z,66.44
2023-03-27T21:46:29.115Z,66.65
2023-03-27T21:51:37.521Z,67.25
2023-03-27T21:56:40.046Z,67.44
2023-03-27T22:01:44.809Z,67.41
2023-03-27T22:06:51.894Z,67.65
2023-03-27T22:12:01.445Z,68.29
2023-03-27T22:17:04.095Z,68.54
2023-03-27T22:22:06.442Z,68.75
2023-03-27T22:27:08.943Z,69.06
2023-03-27T22:32:11.774Z,69.58
2023-03-27T22:37:25.963Z,69.53
2023-03-27T22:42:32.397Z,69.66
2023-03-27T22:47:45.834Z,70.01
2023-03-27T22:52:48.610Z,70.45
2023-03-27T22:57:51.378Z,70.70
2023-03-27T23:02:57.785Z,70.68
2023-03-27T23:08:03.431Z,71.11
2023-03-27T23:13:10.719Z,71.27
2023-03-27T23:18:12.719Z,71.29
2023-03-27T23:23:19.327Z,71.25
2023-03-27T23:28:23.162Z,71.61
2023-03-27T23:33:26.263Z,71.61
2023-03-27T23:38:45.453Z,71.85
2023-03-27T23:43:51.405Z,71.72
2023-03-27T23:49:06.261Z,72.19
2023-03-27T23:54:32.981Z,72.18
2023-03-27T23:59:38.158Z,72.61
